Time;durP1;ratioP1;P1;durP2;ratioP2;P2;SDS_P1;SDS_P2;PMS_P1;PMS_P2;Temp;Humidity;BMP_temperature;BMP_pressure;BME280_temperature;BME280_humidity;BME280_pressure;Samples;Min_cycle;Max_cycle;Signal;HPM_P1;HPM_P2
2023/05/09 00:00:52;;;;;;;7.70;6.03;;;20.20;94.70;;;;;;4991988;28;20025;-74
2023/05/09 00:03:18;;;;;;;9.50;6.80;;;20.20;94.80;;;;;;4993483;28;20396;-74
2023/05/09 00:05:45;;;;;;;9.35;7.20;;;20.20;94.80;;;;;;4993077;28;20080;-73
2023/05/09 00:08:10;;;;;;;9.13;7.45;;;20.20;94.80;;;;;;4993355;28;20034;-70
2023/05/09 00:10:36;;;;;;;10.07;7.20;;;20.20;94.80;;;;;;4993348;28;20014;-75
2023/05/09 00:13:01;;;;;;;10.00;6.38;;;20.10;94.90;;;;;;4993161;28;20031;-68
2023/05/09 00:15:27;;;;;;;8.90;6.15;;;20.10;94.90;;;;;;4993631;28;20101;-72
2023/05/09 00:17:53;;;;;;;10.85;7.00;;;20.10;94.90;;;;;;4997085;28;20114;-74
2023/05/09 00:20:19;;;;;;;9.18;7.05;;;20.10;94.90;;;;;;4996716;28;20035;-71
2023/05/09 00:22:45;;;;;;;8.38;6.22;;;20.10;95.00;;;;;;4996907;28;20085;-69
2023/05/09 00:25:11;;;;;;;10.68;7.13;;;20.10;95.00;;;;;;4996941;28;20551;-69
2023/05/09 00:27:37;;;;;;;11.30;6.70;;;20.10;95.00;;;;;;4996637;28;20019;-68
2023/05/09 00:30:03;;;;;;;8.10;5.68;;;20.10;95.00;;;;;;4996926;28;20117;-72
2023/05/09 00:32:29;;;;;;;10.50;6.53;;;20.10;95.00;;;;;;4996139;28;20081;-72
2023/05/09 00:34:55;;;;;;;9.63;6.97;;;20.10;95.00;;;;;;4995396;28;20030;-73
2023/05/09 00:37:20;;;;;;;10.35;6.68;;;20.10;95.00;;;;;;4996620;28;20109;-71
2023/05/09 00:39:47;;;;;;;8.25;6.85;;;20.10;95.00;;;;;;4996488;28;20130;-71
2023/05/09 00:42:13;;;;;;;7.78;6.50;;;20.10;95.00;;;;;;4996282;28;20019;-74
2023/05/09 00:44:39;;;;;;;11.05;7.22;;;20.00;95.00;;;;;;4996609;28;20104;-71
2023/05/09 00:47:05;;;;;;;11.23;8.10;;;20.10;95.00;;;;;;4996283;28;20511;-71
2023/05/09 00:49:31;;;;;;;10.88;6.82;;;20.10;95.10;;;;;;4995364;28;20069;-71
2023/05/09 00:51:57;;;;;;;7.97;6.75;;;20.00;95.00;;;;;;4996187;28;20018;-72
2023/05/09 00:54:23;;;;;;;7.38;6.38;;;20.00;95.00;;;;;;4996407;28;20125;-75
2023/05/09 00:56:50;;;;;;;12.80;7.57;;;20.00;95.00;;;;;;4995972;28;20476;-76
2023/05/09 00:59:16;;;;;;;9.68;6.88;;;20.00;95.10;;;;;;4996251;28;20076;-70
2023/05/09 01:01:42;;;;;;;11.73;7.65;;;20.00;95.10;;;;;;4994843;28;20029;-74
2023/05/09 01:04:09;;;;;;;8.60;7.13;;;20.00;95.10;;;;;;4996167;28;20030;-70
2023/05/09 01:06:50;;;;;;;12.57;7.10;;;20.00;95.10;;;;;;4995826;28;20018;-75
2023/05/09 01:09:22;;;;;;;9.77;6.88;;;19.90;95.20;;;;;;4995790;28;20081;-73
2023/05/09 01:11:50;;;;;;;12.40;7.38;;;19.90;95.10;;;;;;4996027;28;20475;-75
2023/05/09 01:14:36;;;;;;;9.00;6.72;;;19.90;95.10;;;;;;4994841;28;20030;-72
2023/05/09 01:17:15;;;;;;;8.32;5.95;;;19.90;95.10;;;;;;4996026;28;20490;-69
2023/05/09 01:19:46;;;;;;;9.80;6.80;;;19.90;95.20;;;;;;4995652;28;20034;-71
2023/05/09 01:22:15;;;;;;;6.88;6.07;;;19.90;95.20;;;;;;4995912;28;20052;-73
2023/05/09 01:24:55;;;;;;;7.38;6.22;;;19.90;95.20;;;;;;4995538;28;20018;-72
2023/05/09 01:27:58;;;;;;;8.77;6.15;;;19.90;95.20;;;;;;4995303;28;20030;-74
2023/05/09 01:30:25;;;;;;;8.60;6.90;;;19.80;95.20;;;;;;4995810;28;20022;-70
2023/05/09 01:32:56;;;;;;;7.72;5.82;;;19.90;95.10;;;;;;4995333;28;20393;-69
2023/05/09 01:35:25;;;;;;;8.87;6.87;;;19.90;95.20;;;;;;4995679;28;20026;-74
2023/05/09 01:37:52;;;;;;;8.40;5.50;;;19.80;95.20;;;;;;4995171;28;20038;-69
2023/05/09 01:40:20;;;;;;;8.57;6.28;;;19.90;95.20;;;;;;4995345;28;20022;-70
2023/05/09 01:42:58;;;;;;;6.82;6.05;;;19.80;95.20;;;;;;4995374;28;20019;-71
2023/05/09 01:45:25;;;;;;;10.45;6.55;;;19.80;95.20;;;;;;4995365;28;20026;-74
2023/05/09 01:47:52;;;;;;;8.88;6.18;;;19.80;95.20;;;;;;4995131;28;20042;-73
2023/05/09 01:50:19;;;;;;;10.13;6.72;;;19.80;95.20;;;;;;4995189;28;20027;-72
2023/05/09 01:52:48;;;;;;;6.95;6.18;;;19.80;95.20;;;;;;4994921;28;20019;-72
2023/05/09 01:55:14;;;;;;;7.75;6.15;;;19.80;95.30;;;;;;4995113;28;20033;-72
2023/05/09 01:57:42;;;;;;;9.68;6.22;;;19.80;95.30;;;;;;4995129;28;20117;-73
2023/05/09 02:00:12;;;;;;;8.77;6.20;;;19.80;95.30;;;;;;4995016;28;20492;-73
2023/05/09 02:02:38;;;;;;;9.10;6.40;;;19.80;95.60;;;;;;4994977;28;20030;-71
2023/05/09 02:05:06;;;;;;;8.07;6.53;;;19.80;95.30;;;;;;4994914;28;20030;-76
2023/05/09 02:07:33;;;;;;;8.43;6.10;;;19.80;95.40;;;;;;4994665;28;20030;-70
2023/05/09 02:10:01;;;;;;;7.00;6.15;;;19.80;95.40;;;;;;4994972;28;20046;-69
2023/05/09 02:12:27;;;;;;;8.40;6.32;;;19.70;95.30;;;;;;4994763;28;20054;-70
2023/05/09 02:14:53;;;;;;;8.68;6.35;;;19.70;95.40;;;;;;4993048;28;20479;-71
2023/05/09 02:17:18;;;;;;;6.38;5.78;;;19.70;95.40;;;;;;4993523;28;20038;-71
2023/05/09 02:19:44;;;;;;;8.60;6.80;;;19.70;95.30;;;;;;4994516;28;20482;-72
2023/05/09 02:22:11;;;;;;;6.53;5.80;;;19.70;95.40;;;;;;4994459;28;20037;-72
2023/05/09 02:24:37;;;;;;;6.75;6.00;;;19.70;95.40;;;;;;4994621;28;20026;-72
2023/05/09 02:27:03;;;;;;;9.02;6.65;;;19.70;95.40;;;;;;4993450;28;20468;-71
2023/05/09 02:29:40;;;;;;;9.05;5.95;;;19.70;95.40;;;;;;4994488;28;20396;-69
2023/05/09 02:32:28;;;;;;;7.88;5.85;;;19.60;95.50;;;;;;4993358;28;20454;-74
2023/05/09 02:34:55;;;;;;;7.95;6.18;;;19.70;95.70;;;;;;4993756;28;20038;-73
2023/05/09 02:37:22;;;;;;;8.38;6.57;;;19.60;95.40;;;;;;4994059;28;20057;-74
2023/05/09 02:39:48;;;;;;;6.68;5.90;;;19.60;95.50;;;;;;4993658;28;20030;-70
2023/05/09 02:42:19;;;;;;;9.10;5.93;;;19.60;95.50;;;;;;4994139;28;20472;-73
2023/05/09 02:44:45;;;;;;;7.13;5.72;;;19.60;95.40;;;;;;4994287;28;20033;-73
2023/05/09 02:47:10;;;;;;;9.75;6.20;;;19.60;95.40;;;;;;4994198;28;20022;-72
2023/05/09 02:49:36;;;;;;;8.35;6.43;;;19.60;95.40;;;;;;4993954;28;20049;-72
2023/05/09 02:52:02;;;;;;;7.45;5.90;;;19.60;95.40;;;;;;4994052;28;20033;-71
2023/05/09 02:54:27;;;;;;;6.78;5.88;;;19.60;95.30;;;;;;4994337;28;20122;-74
2023/05/09 02:56:53;;;;;;;6.68;5.32;;;19.60;95.30;;;;;;4994111;28;20089;-71
2023/05/09 02:59:19;;;;;;;7.07;5.20;;;19.60;95.40;;;;;;4993776;28;20531;-75
2023/05/09 03:01:45;;;;;;;6.85;5.47;;;19.60;95.40;;;;;;4993787;28;20015;-71
2023/05/09 03:04:10;;;;;;;6.43;5.55;;;19.60;95.40;;;;;;4993124;28;20077;-75
2023/05/09 03:06:36;;;;;;;6.35;5.50;;;19.60;95.30;;;;;;4993276;28;20034;-71
2023/05/09 03:09:02;;;;;;;6.20;5.60;;;19.60;95.30;;;;;;4993862;28;20022;-76
2023/05/09 03:11:28;;;;;;;7.82;5.28;;;19.60;95.30;;;;;;4993755;28;20045;-72
2023/05/09 03:13:54;;;;;;;6.65;5.80;;;19.60;95.30;;;;;;4994042;28;20030;-73
2023/05/09 03:16:19;;;;;;;7.30;5.63;;;19.50;95.30;;;;;;4993895;28;20360;-76
2023/05/09 03:18:45;;;;;;;6.85;5.35;;;19.60;95.40;;;;;;4993578;28;20046;-75
2023/05/09 03:21:11;;;;;;;6.10;5.47;;;19.60;95.30;;;;;;4993638;28;20026;-73
2023/05/09 03:23:38;;;;;;;6.40;5.65;;;19.60;95.40;;;;;;4993772;28;20034;-75
2023/05/09 03:26:03;;;;;;;6.40;5.50;;;19.50;95.40;;;;;;4993678;28;20054;-73
2023/05/09 03:28:29;;;;;;;6.63;5.15;;;19.50;95.50;;;;;;4993676;28;20062;-71
2023/05/09 03:30:55;;;;;;;7.72;5.60;;;19.50;95.50;;;;;;4993536;28;20456;-69
2023/05/09 03:33:20;;;;;;;8.20;5.97;;;19.50;95.50;;;;;;4993790;28;20395;-73
2023/05/09 03:35:46;;;;;;;7.40;5.78;;;19.50;95.50;;;;;;4993237;28;20361;-73
2023/05/09 03:38:12;;;;;;;9.25;5.95;;;19.50;95.40;;;;;;4993495;28;20038;-72
2023/05/09 03:40:37;;;;;;;6.22;5.28;;;19.50;95.40;;;;;;4993381;28;20018;-74
2023/05/09 03:43:03;;;;;;;7.30;6.60;;;19.50;95.40;;;;;;4993603;28;20054;-74
2023/05/09 03:45:29;;;;;;;6.65;5.72;;;19.60;95.50;;;;;;4993336;28;20073;-71
2023/05/09 03:47:54;;;;;;;7.15;6.05;;;19.50;95.50;;;;;;4993525;28;20022;-69
2023/05/09 03:50:20;;;;;;;9.45;5.75;;;19.50;95.60;;;;;;4995116;28;20435;-73
2023/05/09 03:52:46;;;;;;;6.28;4.65;;;19.50;95.60;;;;;;4997529;28;20033;-69
2023/05/09 03:55:12;;;;;;;6.97;5.93;;;19.50;95.60;;;;;;4997237;28;20426;-71
2023/05/09 03:57:37;;;;;;;7.95;6.10;;;19.50;95.60;;;;;;4997495;28;20022;-70
2023/05/09 04:00:05;;;;;;;8.10;5.57;;;19.50;95.60;;;;;;4997411;28;20535;-70
2023/05/09 04:02:32;;;;;;;6.20;5.60;;;19.50;95.60;;;;;;4997537;28;20027;-71
2023/05/09 04:04:58;;;;;;;7.90;5.15;;;19.50;95.50;;;;;;4996886;28;20026;-72
2023/05/09 04:07:25;;;;;;;7.50;5.97;;;19.60;95.50;;;;;;4997267;28;20018;-71
2023/05/09 04:09:50;;;;;;;7.40;5.65;;;19.50;95.50;;;;;;4996921;28;20026;-71
2023/05/09 04:12:16;;;;;;;6.07;5.47;;;19.50;95.60;;;;;;4997321;28;20025;-76
2023/05/09 04:14:43;;;;;;;7.78;5.72;;;19.50;95.60;;;;;;4995720;28;20030;-74
2023/05/09 04:17:09;;;;;;;9.05;6.18;;;19.50;95.70;;;;;;4997267;28;20022;-71
2023/05/09 04:19:34;;;;;;;7.57;6.57;;;19.50;95.70;;;;;;4996557;28;20502;-73
2023/05/09 04:22:00;;;;;;;11.60;5.97;;;19.50;95.90;;;;;;4996978;28;20029;-72
2023/05/09 04:24:25;;;;;;;8.70;6.32;;;19.40;95.80;;;;;;4996806;28;20084;-70
2023/05/09 04:26:51;;;;;;;6.50;5.30;;;19.40;95.70;;;;;;4996838;28;20526;-71
2023/05/09 04:29:17;;;;;;;7.65;5.20;;;19.40;95.70;;;;;;4996985;28;20027;-73
2023/05/09 04:31:42;;;;;;;9.18;5.88;;;19.50;95.40;;;;;;4996647;28;20077;-72
2023/05/09 04:34:08;;;;;;;8.23;5.88;;;19.50;95.30;;;;;;4996683;28;20458;-73
2023/05/09 04:36:33;;;;;;;5.07;4.18;;;19.60;95.20;;;;;;4996448;28;20085;-75
2023/05/09 04:38:59;;;;;;;4.78;3.10;;;19.60;95.20;;;;;;4995334;28;21626;-71
2023/05/09 04:41:25;;;;;;;5.63;5.07;;;19.60;95.00;;;;;;4993408;28;20026;-75
2023/05/09 04:43:51;;;;;;;3.72;3.35;;;19.60;95.00;;;;;;4996327;28;20026;-72
2023/05/09 04:46:16;;;;;;;7.07;6.00;;;19.70;94.90;;;;;;4996296;28;20482;-72
2023/05/09 04:48:42;;;;;;;5.15;4.65;;;19.60;95.10;;;;;;4981736;28;20031;-72
2023/05/09 04:51:08;;;;;;;4.25;3.58;;;19.70;95.10;;;;;;4976611;28;20027;-75
2023/05/09 04:53:33;;;;;;;4.45;3.65;;;19.70;94.90;;;;;;4976656;28;20532;-72
2023/05/09 04:55:59;;;;;;;4.68;3.60;;;19.70;94.90;;;;;;4979811;28;20157;-75
2023/05/09 04:58:25;;;;;;;6.30;5.45;;;19.70;94.90;;;;;;4998124;28;20061;-72
2023/05/09 05:00:51;;;;;;;8.00;7.20;;;19.70;95.10;;;;;;4995265;28;20030;-75
2023/05/09 05:03:17;;;;;;;8.77;7.18;;;19.60;95.30;;;;;;4995502;28;20030;-77
2023/05/09 05:05:43;;;;;;;7.07;6.35;;;19.60;95.40;;;;;;4995999;28;20021;-77
2023/05/09 05:08:08;;;;;;;10.82;6.78;;;19.60;95.50;;;;;;5009528;28;20037;-76
2023/05/09 05:10:34;;;;;;;6.97;6.28;;;19.60;95.60;;;;;;5013398;28;20022;-77
2023/05/09 05:13:00;;;;;;;7.63;6.47;;;19.60;95.50;;;;;;4993263;28;20023;-75
2023/05/09 05:15:25;;;;;;;6.53;5.70;;;19.60;95.50;;;;;;4988268;28;20491;-72
2023/05/09 05:17:51;;;;;;;8.85;6.57;;;19.60;95.70;;;;;;4992289;28;20038;-77
2023/05/09 05:20:17;;;;;;;11.10;7.63;;;19.60;95.70;;;;;;4993220;28;20030;-76
2023/05/09 05:22:43;;;;;;;7.28;6.50;;;19.60;95.80;;;;;;4995109;28;20030;-76
2023/05/09 05:25:09;;;;;;;6.35;4.88;;;19.60;95.60;;;;;;4993997;28;20105;-77
2023/05/09 05:27:34;;;;;;;5.03;3.83;;;19.60;95.50;;;;;;4995411;28;20046;-75
2023/05/09 05:30:00;;;;;;;8.30;4.65;;;19.60;95.30;;;;;;4994703;28;20048;-66
2023/05/09 05:32:26;;;;;;;7.78;5.60;;;19.60;95.70;;;;;;4992497;28;20038;-66
2023/05/09 05:34:51;;;;;;;7.85;5.70;;;19.60;95.90;;;;;;4994350;28;20475;-67
2023/05/09 05:37:17;;;;;;;7.72;6.00;;;19.50;96.20;;;;;;4993269;28;20037;-65
2023/05/09 05:39:43;;;;;;;8.80;6.45;;;19.50;96.20;;;;;;4995031;28;20104;-69
2023/05/09 05:42:08;;;;;;;6.32;5.15;;;19.50;96.40;;;;;;4995071;28;20424;-68
2023/05/09 05:44:35;;;;;;;5.60;4.80;;;19.50;96.40;;;;;;5007907;28;20057;-66
2023/05/09 05:47:00;;;;;;;7.80;4.93;;;19.50;96.50;;;;;;4996682;28;20026;-67
2023/05/09 05:49:26;;;;;;;8.68;7.05;;;19.50;96.40;;;;;;4992064;28;20040;-67
2023/05/09 05:51:52;;;;;;;8.85;7.10;;;19.50;96.50;;;;;;4995098;28;20033;-67
2023/05/09 05:54:17;;;;;;;8.20;6.72;;;19.60;96.60;;;;;;5001193;28;20044;-66
2023/05/09 05:56:43;;;;;;;7.40;6.70;;;19.40;96.70;;;;;;4999790;28;20026;-69
2023/05/09 05:59:08;;;;;;;10.95;6.65;;;19.40;97.00;;;;;;4987833;28;20479;-66
2023/05/09 06:01:34;;;;;;;7.78;7.07;;;19.40;97.10;;;;;;4994329;28;20515;-68
2023/05/09 06:04:00;;;;;;;7.97;7.18;;;19.40;97.20;;;;;;4989143;28;20036;-68
2023/05/09 06:06:26;;;;;;;5.40;4.90;;;19.40;97.20;;;;;;4992918;28;20065;-70
2023/05/09 06:08:52;;;;;;;9.52;5.63;;;19.40;97.10;;;;;;4992517;28;20034;-69
2023/05/09 06:11:18;;;;;;;8.82;5.78;;;19.50;97.00;;;;;;4992081;28;20030;-69
2023/05/09 06:13:44;;;;;;;9.68;5.32;;;19.50;96.90;;;;;;4991950;28;20038;-67
2023/05/09 06:16:10;;;;;;;7.90;5.90;;;19.50;96.80;;;;;;5000026;28;20025;-68
2023/05/09 06:18:36;;;;;;;8.05;6.40;;;19.60;97.00;;;;;;5014011;28;20066;-68
2023/05/09 06:21:06;;;;;;;7.78;6.72;;;19.60;97.10;;;;;;5014244;28;20160;-67
2023/05/09 06:23:32;;;;;;;7.72;6.93;;;19.50;97.10;;;;;;5012311;28;20040;-68
2023/05/09 06:25:57;;;;;;;7.20;6.50;;;19.50;97.30;;;;;;5012257;28;20502;-67
2023/05/09 06:28:23;;;;;;;7.85;7.03;;;19.50;97.40;;;;;;4991806;28;20057;-67
2023/05/09 06:30:49;;;;;;;7.88;7.00;;;19.50;97.60;;;;;;5006475;28;20029;-67
2023/05/09 06:33:14;;;;;;;10.27;7.10;;;19.50;97.60;;;;;;4994966;28;20522;-68
2023/05/09 06:35:49;;;;;;;8.43;6.22;;;19.50;97.70;;;;;;5087043;28;20447;-67
2023/05/09 06:38:14;;;;;;;7.85;6.00;;;19.50;97.60;;;;;;5076354;28;20032;-68
2023/05/09 06:40:40;;;;;;;7.13;6.43;;;19.50;97.50;;;;;;5069807;28;20032;-68
2023/05/09 06:43:06;;;;;;;7.38;6.45;;;19.50;97.70;;;;;;5085191;28;20028;-68
2023/05/09 06:45:32;;;;;;;6.75;5.35;;;19.50;97.80;;;;;;5055938;28;20082;-69
2023/05/09 06:47:57;;;;;;;9.13;5.38;;;19.50;97.80;;;;;;5048952;28;20032;-70
2023/05/09 06:50:23;;;;;;;7.07;6.00;;;19.60;97.80;;;;;;5063632;28;20036;-66
2023/05/09 06:52:49;;;;;;;7.80;5.55;;;19.50;97.50;;;;;;5060205;28;20040;-67
2023/05/09 06:55:14;;;;;;;8.48;6.28;;;19.60;97.60;;;;;;5050877;28;20037;-68
2023/05/09 06:57:40;;;;;;;7.35;6.00;;;19.60;97.80;;;;;;5048880;28;20018;-67
2023/05/09 07:00:06;;;;;;;7.10;5.47;;;19.60;97.90;;;;;;5035630;28;20482;-67
2023/05/09 07:02:32;;;;;;;8.80;5.68;;;19.50;97.80;;;;;;5038765;28;20379;-66
2023/05/09 07:04:57;;;;;;;5.70;4.78;;;19.60;97.80;;;;;;5043845;28;20029;-66
2023/05/09 07:07:23;;;;;;;7.22;6.25;;;19.60;97.80;;;;;;5029696;28;20072;-69
2023/05/09 07:09:49;;;;;;;7.75;5.43;;;19.60;97.90;;;;;;5031423;28;20039;-67
2023/05/09 07:12:14;;;;;;;7.47;6.25;;;19.60;97.90;;;;;;5046537;28;20056;-65
2023/05/09 07:14:40;;;;;;;6.45;5.85;;;19.60;97.90;;;;;;5047960;28;20033;-66
2023/05/09 07:17:07;;;;;;;6.15;5.55;;;19.60;98.00;;;;;;5048447;28;20084;-66
2023/05/09 07:19:33;;;;;;;6.93;5.43;;;19.60;98.00;;;;;;5029464;28;20057;-66
2023/05/09 07:21:58;;;;;;;7.93;4.68;;;19.60;98.00;;;;;;5048055;28;20572;-66
2023/05/09 07:24:24;;;;;;;6.13;5.07;;;19.70;97.90;;;;;;5044806;28;20056;-66
2023/05/09 07:26:50;;;;;;;7.00;5.82;;;19.70;98.10;;;;;;5048828;28;20021;-66
2023/05/09 07:29:17;;;;;;;7.93;5.70;;;19.60;98.00;;;;;;5048346;28;20114;-67
2023/05/09 07:31:42;;;;;;;6.60;6.00;;;19.70;98.10;;;;;;5035632;28;20108;-67
2023/05/09 07:34:08;;;;;;;7.40;6.60;;;19.60;98.30;;;;;;5028900;28;20537;-66
2023/05/09 07:36:33;;;;;;;5.80;5.20;;;19.60;98.40;;;;;;5029132;28;20029;-67
2023/05/09 07:38:59;;;;;;;6.53;5.25;;;19.60;98.20;;;;;;5029370;28;20425;-67
2023/05/09 07:41:25;;;;;;;8.77;6.13;;;19.60;98.30;;;;;;5042196;28;20025;-67
2023/05/09 07:43:51;;;;;;;6.35;5.43;;;19.50;98.40;;;;;;5046045;28;20010;-67
2023/05/09 07:46:16;;;;;;;5.80;5.30;;;19.60;98.40;;;;;;5054211;28;20569;-67
2023/05/09 07:48:42;;;;;;;7.32;6.63;;;19.60;98.50;;;;;;5039265;28;20040;-66
2023/05/09 07:51:08;;;;;;;7.63;4.55;;;19.50;98.70;;;;;;5054219;28;20486;-66
2023/05/09 07:53:33;;;;;;;7.13;5.63;;;19.60;98.20;;;;;;5035818;28;20379;-66
2023/05/09 07:55:59;;;;;;;7.30;4.55;;;19.60;98.30;;;;;;5044359;28;20082;-67
2023/05/09 07:58:25;;;;;;;4.90;4.00;;;19.60;98.10;;;;;;5038407;28;20031;-67
2023/05/09 08:00:50;;;;;;;6.78;4.03;;;19.60;98.10;;;;;;5053650;28;20107;-65
2023/05/09 08:03:16;;;;;;;5.10;4.55;;;19.70;97.90;;;;;;5055368;28;20537;-66
2023/05/09 08:05:41;;;;;;;5.72;4.75;;;19.70;98.10;;;;;;5052885;28;20029;-67
2023/05/09 08:08:07;;;;;;;9.07;4.50;;;19.70;98.20;;;;;;5055313;28;20021;-67
2023/05/09 08:10:33;;;;;;;4.45;3.60;;;19.70;98.10;;;;;;5046675;28;20388;-66
2023/05/09 08:12:59;;;;;;;4.40;3.20;;;19.70;97.90;;;;;;5035070;28;20123;-66
2023/05/09 08:15:24;;;;;;;5.72;3.75;;;19.80;97.70;;;;;;5031371;28;20467;-68
2023/05/09 08:17:50;;;;;;;4.90;3.38;;;19.80;97.70;;;;;;5029237;28;20036;-66
2023/05/09 08:20:16;;;;;;;4.75;2.55;;;19.80;97.70;;;;;;5030481;28;20630;-66
2023/05/09 08:22:41;;;;;;;4.40;3.75;;;19.80;97.60;;;;;;5030975;28;20108;-67
2023/05/09 08:25:07;;;;;;;4.68;2.70;;;19.90;97.50;;;;;;5053512;28;20459;-65
2023/05/09 08:27:33;;;;;;;5.53;3.25;;;19.90;97.40;;;;;;5033725;28;20080;-66
2023/05/09 08:29:59;;;;;;;5.60;2.80;;;20.00;97.40;;;;;;5037129;28;20508;-67
2023/05/09 08:32:24;;;;;;;3.10;2.80;;;20.00;97.30;;;;;;5053396;28;20037;-68
2023/05/09 08:34:50;;;;;;;4.45;3.15;;;19.90;97.20;;;;;;5040832;28;20045;-66
2023/05/09 08:37:15;;;;;;;5.32;3.25;;;19.90;97.10;;;;;;5033719;28;20057;-67
2023/05/09 08:39:41;;;;;;;4.00;3.03;;;19.90;97.20;;;;;;5032492;28;20025;-67
2023/05/09 08:42:08;;;;;;;4.18;3.33;;;19.90;97.30;;;;;;5034385;28;20021;-65
2023/05/09 08:44:34;;;;;;;3.10;2.42;;;19.90;97.30;;;;;;5034511;28;20029;-66
2023/05/09 08:47:02;;;;;;;4.43;2.58;;;20.00;97.10;;;;;;5031295;28;20074;-65
2023/05/09 08:49:28;;;;;;;5.35;2.60;;;20.00;97.00;;;;;;5033953;28;20025;-65
2023/05/09 08:51:55;;;;;;;4.95;2.95;;;20.00;97.00;;;;;;5032211;28;20021;-67
2023/05/09 08:54:22;;;;;;;3.45;2.00;;;20.10;97.00;;;;;;5033093;28;20029;-65
2023/05/09 08:56:48;;;;;;;3.08;2.35;;;20.00;96.80;;;;;;5020824;28;20070;-67
2023/05/09 08:59:15;;;;;;;5.38;2.88;;;20.10;96.80;;;;;;5032604;28;20021;-67
2023/05/09 09:01:42;;;;;;;4.57;2.95;;;20.10;96.80;;;;;;5034248;28;20032;-66
2023/05/09 09:04:10;;;;;;;3.53;2.65;;;20.10;96.80;;;;;;5034123;28;20042;-66
2023/05/09 09:06:38;;;;;;;2.67;2.38;;;20.10;96.70;;;;;;5034245;28;20028;-66
2023/05/09 09:09:07;;;;;;;3.60;2.67;;;20.10;96.60;;;;;;5039327;28;20025;-68
2023/05/09 09:11:34;;;;;;;4.22;2.83;;;20.10;96.80;;;;;;5052583;28;20025;-67
2023/05/09 09:14:02;;;;;;;3.88;2.30;;;20.10;96.70;;;;;;5032494;28;20453;-67
2023/05/09 09:16:28;;;;;;;4.13;2.10;;;20.10;96.60;;;;;;5034093;28;20459;-67
2023/05/09 09:18:58;;;;;;;3.65;2.67;;;20.10;96.60;;;;;;5028931;28;20049;-66
2023/05/09 09:21:23;;;;;;;3.30;2.13;;;20.10;96.60;;;;;;5023882;28;20117;-67
2023/05/09 09:23:51;;;;;;;5.47;2.30;;;20.10;96.50;;;;;;5043745;28;20497;-69
2023/05/09 09:26:17;;;;;;;5.07;2.15;;;20.10;96.60;;;;;;5046580;28;20025;-68
2023/05/09 09:28:42;;;;;;;5.25;2.47;;;20.10;96.70;;;;;;5038762;28;20083;-68
2023/05/09 09:31:19;;;;;;;10.25;2.67;;;20.10;96.80;;;;;;5033229;28;20025;-66
2023/05/09 09:33:45;;;;;;;5.40;2.10;;;20.10;97.20;;;;;;5036517;28;20041;-68
2023/05/09 09:36:11;;;;;;;2.95;2.60;;;20.10;96.90;;;;;;5037779;28;20108;-70
2023/05/09 09:38:40;;;;;;;2.92;1.77;;;20.20;96.90;;;;;;5032342;28;20025;-68
2023/05/09 09:41:06;;;;;;;4.15;2.63;;;20.20;96.90;;;;;;5053452;28;20020;-69
2023/05/09 09:43:31;;;;;;;2.60;1.88;;;20.20;96.80;;;;;;5037051;28;20033;-69
2023/05/09 09:46:01;;;;;;;6.18;2.60;;;20.20;96.80;;;;;;5031575;28;20084;-70
2023/05/09 09:48:35;;;;;;;4.15;2.08;;;20.20;96.80;;;;;;5033060;28;20071;-69
2023/05/09 09:51:11;;;;;;;6.45;2.25;;;20.20;96.70;;;;;;5040401;28;21322;-69
2023/05/09 09:53:41;;;;;;;2.60;2.35;;;20.20;96.80;;;;;;5044162;28;20057;-68
2023/05/09 09:56:07;;;;;;;4.70;2.13;;;20.20;96.80;;;;;;5053365;28;20040;-68
2023/05/09 09:58:33;;;;;;;3.90;2.47;;;20.20;96.70;;;;;;5049856;28;20029;-68
2023/05/09 10:01:19;;;;;;;4.60;2.00;;;20.20;96.70;;;;;;5039368;28;20129;-68
2023/05/09 10:03:45;;;;;;;4.88;1.98;;;20.20;96.70;;;;;;5052780;28;20028;-70
2023/05/09 10:06:12;;;;;;;6.43;2.30;;;20.20;96.80;;;;;;5047609;28;20029;-68
2023/05/09 10:08:39;;;;;;;11.30;2.20;;;20.20;96.80;;;;;;5034064;28;20018;-70
2023/05/09 10:11:05;;;;;;;9.40;3.20;;;20.30;96.60;;;;;;5048418;28;20024;-69
2023/05/09 10:13:34;;;;;;;9.60;3.10;;;20.30;96.70;;;;;;5038358;28;20025;-68
2023/05/09 10:16:02;;;;;;;5.93;2.65;;;20.30;96.60;;;;;;5032953;28;20053;-69
2023/05/09 10:18:29;;;;;;;9.93;2.33;;;20.30;96.60;;;;;;5033022;28;20028;-69
2023/05/09 10:21:00;;;;;;;10.73;2.30;;;20.20;96.70;;;;;;5033413;28;20025;-69
2023/05/09 10:23:28;;;;;;;6.03;1.95;;;20.30;96.70;;;;;;5033150;28;20022;-69
2023/05/09 10:26:03;;;;;;;6.32;2.30;;;20.30;96.60;;;;;;5031412;28;20021;-67
2023/05/09 10:28:32;;;;;;;11.13;2.22;;;20.30;96.60;;;;;;5034145;28;20038;-67
2023/05/09 10:31:13;;;;;;;7.93;2.25;;;20.30;96.50;;;;;;5051970;28;20067;-72
2023/05/09 10:33:47;;;;;;;5.15;2.40;;;20.40;96.50;;;;;;5052388;28;20116;-70
2023/05/09 10:36:22;;;;;;;4.10;1.80;;;20.30;96.60;;;;;;5052695;28;20059;-69
2023/05/09 10:38:50;;;;;;;8.25;2.20;;;20.40;96.50;;;;;;5037586;28;20057;-68
2023/05/09 10:41:17;;;;;;;3.53;1.83;;;20.40;96.40;;;;;;5032032;28;20026;-69
2023/05/09 10:43:44;;;;;;;5.57;2.13;;;20.50;96.40;;;;;;5031868;28;20021;-67
2023/05/09 10:46:11;;;;;;;6.85;1.73;;;20.50;96.30;;;;;;5032369;28;20068;-68
2023/05/09 10:48:38;;;;;;;2.95;1.58;;;20.50;96.40;;;;;;5032487;28;20574;-68
2023/05/09 10:51:04;;;;;;;5.95;2.47;;;20.40;96.40;;;;;;5036542;28;20420;-68
2023/05/09 10:53:47;;;;;;;10.20;2.15;;;20.50;96.40;;;;;;5052072;28;20478;-68
2023/05/09 10:56:22;;;;;;;14.52;2.83;;;20.50;96.30;;;;;;5052265;28;20064;-69
2023/05/09 10:58:48;;;;;;;7.20;2.30;;;20.50;96.30;;;;;;5052250;28;20021;-67
2023/05/09 11:01:27;;;;;;;4.95;2.17;;;20.50;96.20;;;;;;5039414;28;20032;-67
2023/05/09 11:03:54;;;;;;;8.90;1.92;;;20.60;96.20;;;;;;5030637;28;20036;-67
2023/05/09 11:06:40;;;;;;;7.18;2.00;;;20.50;96.20;;;;;;5032582;28;20048;-67
2023/05/09 11:09:27;;;;;;;6.07;2.20;;;20.60;96.10;;;;;;5032519;28;20033;-66
2023/05/09 11:11:58;;;;;;;3.00;1.42;;;20.60;96.10;;;;;;5012913;28;20030;-69
2023/05/09 11:14:39;;;;;;;7.57;1.95;;;20.60;96.00;;;;;;5012426;28;20431;-69
2023/05/09 11:17:21;;;;;;;9.73;1.63;;;20.60;96.10;;;;;;5012340;28;20058;-69
2023/05/09 11:19:47;;;;;;;6.28;1.98;;;20.60;96.00;;;;;;5015031;28;20056;-69
2023/05/09 11:22:26;;;;;;;4.07;1.50;;;20.60;95.90;;;;;;5033114;28;20056;-69
2023/05/09 11:25:04;;;;;;;5.57;2.05;;;20.60;96.00;;;;;;5039854;28;20033;-69
2023/05/09 11:27:38;;;;;;;4.45;1.92;;;20.60;96.00;;;;;;5050870;28;20065;-69
2023/05/09 11:30:06;;;;;;;4.85;2.25;;;20.60;96.20;;;;;;5042374;28;20075;-69
2023/05/09 11:32:33;;;;;;;4.63;2.38;;;20.60;96.50;;;;;;5043234;28;20026;-69
2023/05/09 11:35:14;;;;;;;7.80;3.00;;;20.60;96.70;;;;;;5049072;28;20148;-69
2023/05/09 11:38:05;;;;;;;6.38;3.30;;;20.60;97.20;;;;;;5023152;28;20025;-69
2023/05/09 11:40:32;;;;;;;10.45;3.25;;;20.50;97.80;;;;;;5043111;28;20043;-69
2023/05/09 11:43:00;;;;;;;13.82;4.38;;;20.60;98.00;;;;;;5037758;28;20029;-69
2023/05/09 11:45:28;;;;;;;6.00;3.03;;;20.50;98.30;;;;;;5051923;28;20020;-70
2023/05/09 11:47:54;;;;;;;11.55;4.55;;;20.50;98.00;;;;;;5046237;28;20452;-70
2023/05/09 11:50:20;;;;;;;6.50;3.75;;;20.50;98.20;;;;;;5032029;28;20576;-70
2023/05/09 11:52:47;;;;;;;6.90;3.80;;;20.50;98.20;;;;;;5021640;28;20025;-70
2023/05/09 11:55:14;;;;;;;9.30;3.72;;;20.50;98.60;;;;;;5027067;28;20041;-71
2023/05/09 11:57:41;;;;;;;11.45;3.97;;;20.60;98.60;;;;;;5029665;28;20219;-70
2023/05/09 12:00:09;;;;;;;6.50;3.38;;;20.60;98.40;;;;;;5024882;28;20033;-70
2023/05/09 12:02:36;;;;;;;6.65;2.72;;;20.60;98.10;;;;;;5038560;28;20490;-70
2023/05/09 12:05:13;;;;;;;6.22;3.10;;;20.60;97.90;;;;;;5031184;28;20044;-70
2023/05/09 12:07:40;;;;;;;5.07;2.63;;;20.60;97.80;;;;;;5032435;28;20454;-70
2023/05/09 12:10:11;;;;;;;4.97;2.20;;;20.60;97.50;;;;;;5033841;28;20478;-70
2023/05/09 12:12:45;;;;;;;4.25;1.80;;;20.50;97.40;;;;;;5038921;28;20394;-70
2023/05/09 12:15:12;;;;;;;6.60;2.10;;;20.50;97.20;;;;;;5021543;28;20037;-70
2023/05/09 12:17:41;;;;;;;4.45;1.77;;;20.50;97.10;;;;;;5044242;28;20112;-70
2023/05/09 12:20:08;;;;;;;3.20;1.60;;;20.50;97.00;;;;;;5034728;28;20022;-70
2023/05/09 12:22:36;;;;;;;2.78;1.38;;;20.50;96.90;;;;;;5034594;28;20031;-70
2023/05/09 12:25:06;;;;;;;2.55;1.35;;;20.50;96.70;;;;;;5034293;28;20104;-70
2023/05/09 12:27:33;;;;;;;3.17;1.77;;;20.50;96.60;;;;;;5034894;28;20103;-70
2023/05/09 12:30:10;;;;;;;4.32;1.70;;;20.50;96.50;;;;;;5034442;28;20029;-70
2023/05/09 12:32:38;;;;;;;2.95;1.35;;;20.60;96.50;;;;;;5034703;28;20040;-70
2023/05/09 12:35:07;;;;;;;2.60;1.23;;;20.60;96.40;;;;;;5033892;28;20045;-70
2023/05/09 12:37:33;;;;;;;3.13;1.17;;;20.50;96.30;;;;;;5034122;28;20024;-70
2023/05/09 12:40:05;;;;;;;3.08;1.40;;;20.50;96.30;;;;;;5033811;28;20037;-70
2023/05/09 12:42:32;;;;;;;2.20;1.00;;;20.50;96.20;;;;;;5033142;28;20029;-70
2023/05/09 12:45:00;;;;;;;2.08;1.17;;;20.50;96.10;;;;;;5035636;28;20040;-70
2023/05/09 12:47:27;;;;;;;2.15;1.00;;;20.50;96.10;;;;;;5034378;28;20403;-70